Santa Barbara Municipal Airport
KSBA : now visible

Airfield :











YOU CAN JOIN US ON...

 
LOGIN :

Register | Disclaimer

   EN    FR    IT 

 









Legend :    VFR   Marginal VFR   IFR   Intensive IFR   Very Intensive IFR
Visi :
Ceiling :
>= 8 km
>= 3000ft
5 to 8 km
1000 to 3000 ft
1500m to 5 km
500 to 1000 ft
800 to 1500m
200 to 500 ft
< 800m
< 200 ft
Symbols :   Thunderstorms  Fog  Heavy snow  Heavy precipitations  Wind > 20 kt







- Airport Elevation : 13 ft
- IATA code : SBA


KSBA - Santa Barbara Municipal

CURRENT METAR :
  • 220153Z 00000KT 10SM CLR 21/15 A2982 RMK AO2 PK WND 03046/0114 SLP096 T02060150

EXPIRED METARs :
  • 220053Z AUTO VRB06KT 9SM CLR 22/15 A2981 RMK AO2 SLP096 T02220150
  • 212353Z AUTO 26011KT 9SM CLR 24/13 A2981 RMK AO2 SLP095 T02390133 10256 20228 56014
  • 212253Z 24010KT 9SM CLR 24/16 A2983 RMK AO2 SLP100 T02440161

TAF KSBA
Valid from the 22 at 00:00 until the 23 at 00:00 UTC


212320Z 2200/2224 24009KT P6SM SKC
FM220200 VRB03KT P6SM SKC
FM221600 16005KT P6SM SCT250
FM222100 24009KT P6SM SCT250
No reported NOTAMs for that airfield.



MET'MAP, your aeronautical weather chart ! - Copyright ORBIFLY December 2007 - Disclaimer

ORBIFLY MET'MAP TEAM :

Programming & Development : Alexandra Zaïnal
Concept & Development : Baudouin d'Aumeries
Co-Development & Prog : Marc-Olivier Méhu
Technical & hardware support : Manuel Goepfert

Contact : metmap@orbifly.com




SOURCES & CREDITS :

   NOAA       Earth
Advisory